Shinkai Maru — JJ4012 — position and weather

sailwx.info

Track history (hours):
 
Tides and Currents Weather Stations Pressure Air Temp Water Temp Dewpoint Dewpoint Depression Visibility Wind Speed Wind Dir Waves Ship Positions

Shinkai Maru

Last reported at 2016-Jun-28 10:18 UTC. Time now 2016-Jun-30 01:36 UTC.
Position N 34°41' E 134°49'.

Length 76 m; draft 4.1 m.

Type: Cargo ship. MMSI: 431301346.

Date/timePositionNaut miles runAvg speedWind from/ knotsBaromVisibWave heightAir tempDewpointWater temp
2016-Jun-28 10:18N 34°41' E 134°49'810.0
2016-Jun-28 09:28N 34°37' E 134°58'9 9.4
2016-Jun-28 08:33N 34°31' E 135°05'1711.9
2016-Jun-28 07:09N 34°15' E 134°59'711.7
2016-Jun-28 06:33N 34°08' E 134°60'  
2016-Jun-25 19:10N 34°13' E 134°59'1111.7
2016-Jun-25 18:15N 34°24' E 135°00'811.6
2016-Jun-25 17:33N 34°32' E 135°03'9 7.7
2016-Jun-25 16:27N 34°37' E 134°54'3 0.1
2016-Jun-23 17:12N 34°38' E 134°52'810.8
2016-Jun-23 16:26N 34°37' E 135°02'8 9.3
2016-Jun-23 15:33N 34°29' E 135°04'1211.9
2016-Jun-23 14:32N 34°18' E 134°59'1312.3
2016-Jun-23 13:30N 34°05' E 135°00'245 8.8
2016-Jun-22 09:32N 35°14' E 139°46'1110.9
2016-Jun-22 08:33N 35°24' E 139°43'1111.1
2016-Jun-22 07:33N 35°31' E 139°53'10 9.9
2016-Jun-22 06:34N 35°41' E 139°57'0 0.2
2016-Jun-22 05:32N 35°41' E 139°57'0 0.0
2016-Jun-22 04:32N 35°41' E 139°57'0 0.3
2016-Jun-22 03:33N 35°41' E 139°58'4 3.1
2016-Jun-22 02:24N 35°37' E 139°58'0 0.0
2016-Jun-22 01:24N 35°37' E 139°58'0 0.0
2016-Jun-22 00:30N 35°37' E 139°58'0 0.0
2016-Jun-21 23:30N 35°37' E 139°58'0 0.0
2016-Jun-21 22:24N 35°37' E 139°58'0 0.0
2016-Jun-21 21:18N 35°37' E 139°58'0 0.0
2016-Jun-21 20:18N 35°37' E 139°58'0 0.0
2016-Jun-21 19:18N 35°37' E 139°58'0 0.0
2016-Jun-21 18:30N 35°37' E 139°58'0 0.0
2016-Jun-21 17:30N 35°37' E 139°58'0 0.0
2016-Jun-21 16:24N 35°37' E 139°58'0 0.0
2016-Jun-21 15:30N 35°37' E 139°58'0 0.0
2016-Jun-21 14:18N 35°37' E 139°58'0 0.0
2016-Jun-21 13:30N 35°37' E 139°58'0 0.0
2016-Jun-21 12:30N 35°37' E 139°58'0 0.0
2016-Jun-21 11:18N 35°37' E 139°58'0 0.0
2016-Jun-21 10:24N 35°37' E 139°58'0 0.0
2016-Jun-21 09:33N 35°37' E 139°58'0 0.0
2016-Jun-21 08:24N 35°37' E 139°58'0 0.0
2016-Jun-21 07:30N 35°37' E 139°58'0 0.1
2016-Jun-21 06:33N 35°37' E 139°59'2211.2
2016-Jun-21 04:34N 35°18' E 139°45'1111.1
2016-Jun-21 03:33N 35°07' E 139°45'235 9.4
2016-Jun-20 02:25N 34°27' E 135°03'1112.4
2016-Jun-20 01:32N 34°36' E 135°09'2 1.7
2016-Jun-20 00:26N 34°38' E 135°10'0 0.0
2016-Jun-19 23:32N 34°38' E 135°10'0 0.0
2016-Jun-19 22:32N 34°38' E 135°10'0 0.0
2016-Jun-19 21:26N 34°38' E 135°10'0 0.0
2016-Jun-19 20:26N 34°38' E 135°10'0 0.0
2016-Jun-19 19:32N 34°38' E 135°10'0 0.0
2016-Jun-19 18:32N 34°38' E 135°10'0 0.1
2016-Jun-19 17:32N 34°38' E 135°10'0 0.0
2016-Jun-19 16:32N 34°38' E 135°10'0 0.0
2016-Jun-19 15:26N 34°38' E 135°10'0 0.1
2016-Jun-19 14:32N 34°38' E 135°10'0 0.0
2016-Jun-19 13:32N 34°38' E 135°10'0 0.1
2016-Jun-19 12:32N 34°38' E 135°10'0 0.0
2016-Jun-19 11:32N 34°38' E 135°10'0 0.0
2016-Jun-19 10:32N 34°38' E 135°10'0 0.0
2016-Jun-19 09:32N 34°38' E 135°10'0 0.1
2016-Jun-19 08:32N 34°38' E 135°10'0 0.3
2016-Jun-19 07:33N 34°38' E 135°10'1210.7
2016-Jun-19 06:27N 34°36' E 134°55'7 0.8
2016-Jun-18 21:33N 34°41' E 134°49'1211.9
2016-Jun-18 20:33N 34°37' E 135°02'1010.4
2016-Jun-18 19:33N 34°26' E 135°03'1111.3
2016-Jun-18 18:33N 34°15' E 134°60'1211.8
2016-Jun-18 17:30N 34°03' E 135°01'  
Track history (hours):
 
Tides and Currents Weather Stations Pressure Air Temp Water Temp Dewpoint Dewpoint Depression Visibility Wind Speed Wind Dir Waves Ship Positions

Shinkai Maru

Last reported at 2016-Jun-28 10:18 UTC. Time now 2016-Jun-30 01:36 UTC.
Position N 34°41' E 134°49'.

Length 76 m; draft 4.1 m.

Type: Cargo ship. MMSI: 431301346.

Date/timePositionNaut miles runAvg speedWind from/ knotsBaromVisibWave heightAir tempDewpointWater temp
2016-Jun-28 10:18N 34°41' E 134°49'810.0
2016-Jun-28 09:28N 34°37' E 134°58'9 9.4
2016-Jun-28 08:33N 34°31' E 135°05'1711.9
2016-Jun-28 07:09N 34°15' E 134°59'711.7
2016-Jun-28 06:33N 34°08' E 134°60'  
2016-Jun-25 19:10N 34°13' E 134°59'1111.7
2016-Jun-25 18:15N 34°24' E 135°00'811.6
2016-Jun-25 17:33N 34°32' E 135°03'9 7.7
2016-Jun-25 16:27N 34°37' E 134°54'3 0.1
2016-Jun-23 17:12N 34°38' E 134°52'810.8
2016-Jun-23 16:26N 34°37' E 135°02'8 9.3
2016-Jun-23 15:33N 34°29' E 135°04'1211.9
2016-Jun-23 14:32N 34°18' E 134°59'1312.3
2016-Jun-23 13:30N 34°05' E 135°00'245 8.8
2016-Jun-22 09:32N 35°14' E 139°46'1110.9
2016-Jun-22 08:33N 35°24' E 139°43'1111.1
2016-Jun-22 07:33N 35°31' E 139°53'10 9.9
2016-Jun-22 06:34N 35°41' E 139°57'0 0.2
2016-Jun-22 05:32N 35°41' E 139°57'0 0.0
2016-Jun-22 04:32N 35°41' E 139°57'0 0.3
2016-Jun-22 03:33N 35°41' E 139°58'4 3.1
2016-Jun-22 02:24N 35°37' E 139°58'0 0.0
2016-Jun-22 01:24N 35°37' E 139°58'0 0.0
2016-Jun-22 00:30N 35°37' E 139°58'0 0.0
2016-Jun-21 23:30N 35°37' E 139°58'0 0.0
2016-Jun-21 22:24N 35°37' E 139°58'0 0.0
2016-Jun-21 21:18N 35°37' E 139°58'0 0.0
2016-Jun-21 20:18N 35°37' E 139°58'0 0.0
2016-Jun-21 19:18N 35°37' E 139°58'0 0.0
2016-Jun-21 18:30N 35°37' E 139°58'0 0.0
2016-Jun-21 17:30N 35°37' E 139°58'0 0.0
2016-Jun-21 16:24N 35°37' E 139°58'0 0.0
2016-Jun-21 15:30N 35°37' E 139°58'0 0.0
2016-Jun-21 14:18N 35°37' E 139°58'0 0.0
2016-Jun-21 13:30N 35°37' E 139°58'0 0.0
2016-Jun-21 12:30N 35°37' E 139°58'0 0.0
2016-Jun-21 11:18N 35°37' E 139°58'0 0.0
2016-Jun-21 10:24N 35°37' E 139°58'0 0.0
2016-Jun-21 09:33N 35°37' E 139°58'0 0.0
2016-Jun-21 08:24N 35°37' E 139°58'0 0.0
2016-Jun-21 07:30N 35°37' E 139°58'0 0.1
2016-Jun-21 06:33N 35°37' E 139°59'2211.2
2016-Jun-21 04:34N 35°18' E 139°45'1111.1
2016-Jun-21 03:33N 35°07' E 139°45'235 9.4
2016-Jun-20 02:25N 34°27' E 135°03'1112.4
2016-Jun-20 01:32N 34°36' E 135°09'2 1.7
2016-Jun-20 00:26N 34°38' E 135°10'0 0.0
2016-Jun-19 23:32N 34°38' E 135°10'0 0.0
2016-Jun-19 22:32N 34°38' E 135°10'0 0.0
2016-Jun-19 21:26N 34°38' E 135°10'0 0.0
2016-Jun-19 20:26N 34°38' E 135°10'0 0.0
2016-Jun-19 19:32N 34°38' E 135°10'0 0.0
2016-Jun-19 18:32N 34°38' E 135°10'0 0.1
2016-Jun-19 17:32N 34°38' E 135°10'0 0.0
2016-Jun-19 16:32N 34°38' E 135°10'0 0.0
2016-Jun-19 15:26N 34°38' E 135°10'0 0.1
2016-Jun-19 14:32N 34°38' E 135°10'0 0.0
2016-Jun-19 13:32N 34°38' E 135°10'0 0.1
2016-Jun-19 12:32N 34°38' E 135°10'0 0.0
2016-Jun-19 11:32N 34°38' E 135°10'0 0.0
2016-Jun-19 10:32N 34°38' E 135°10'0 0.0
2016-Jun-19 09:32N 34°38' E 135°10'0 0.1
2016-Jun-19 08:32N 34°38' E 135°10'0 0.3
2016-Jun-19 07:33N 34°38' E 135°10'1210.7
2016-Jun-19 06:27N 34°36' E 134°55'7 0.8
2016-Jun-18 21:33N 34°41' E 134°49'1211.9
2016-Jun-18 20:33N 34°37' E 135°02'1010.4
2016-Jun-18 19:33N 34°26' E 135°03'1111.3
2016-Jun-18 18:33N 34°15' E 134°60'1211.8
2016-Jun-18 17:30N 34°03' E 135°01'  

Dump ship's entire track history